sensor_id;sensor_type;location;lat;lon;timestamp;P1;durP1;ratioP1;P2;durP2;ratioP2
3257;SDS011;1641;51.306;12.384;2023-07-16T00:00:04;9.20;;;5.55;;
3257;SDS011;1641;51.306;12.384;2023-07-16T00:02:33;8.20;;;5.25;;
3257;SDS011;1641;51.306;12.384;2023-07-16T00:04:58;7.35;;;4.50;;
3257;SDS011;1641;51.306;12.384;2023-07-16T00:07:23;4.18;;;3.63;;
3257;SDS011;1641;51.306;12.384;2023-07-16T00:09:48;5.82;;;4.05;;
3257;SDS011;1641;51.306;12.384;2023-07-16T00:12:14;5.75;;;3.95;;
3257;SDS011;1641;51.306;12.384;2023-07-16T00:14:39;6.03;;;3.83;;
3257;SDS011;1641;51.306;12.384;2023-07-16T00:17:04;4.15;;;2.80;;
3257;SDS011;1641;51.306;12.384;2023-07-16T00:19:32;4.47;;;2.90;;
3257;SDS011;1641;51.306;12.384;2023-07-16T00:21:58;4.78;;;2.97;;
3257;SDS011;1641;51.306;12.384;2023-07-16T00:24:23;3.35;;;2.25;;
3257;SDS011;1641;51.306;12.384;2023-07-16T00:26:52;8.02;;;3.58;;
3257;SDS011;1641;51.306;12.384;2023-07-16T00:29:17;5.72;;;2.70;;
3257;SDS011;1641;51.306;12.384;2023-07-16T00:31:45;3.53;;;2.67;;
3257;SDS011;1641;51.306;12.384;2023-07-16T00:34:11;6.45;;;2.90;;
3257;SDS011;1641;51.306;12.384;2023-07-16T00:36:38;4.60;;;3.50;;
3257;SDS011;1641;51.306;12.384;2023-07-16T00:39:03;5.85;;;2.90;;
3257;SDS011;1641;51.306;12.384;2023-07-16T00:41:29;7.20;;;3.15;;
3257;SDS011;1641;51.306;12.384;2023-07-16T00:43:54;7.88;;;3.60;;
3257;SDS011;1641;51.306;12.384;2023-07-16T00:46:19;7.50;;;3.55;;
3257;SDS011;1641;51.306;12.384;2023-07-16T00:48:45;7.80;;;4.07;;
3257;SDS011;1641;51.306;12.384;2023-07-16T00:51:10;3.55;;;3.10;;
3257;SDS011;1641;51.306;12.384;2023-07-16T00:53:36;7.43;;;3.45;;
3257;SDS011;1641;51.306;12.384;2023-07-16T00:56:01;4.25;;;2.92;;
3257;SDS011;1641;51.306;12.384;2023-07-16T00:58:26;5.97;;;3.38;;
3257;SDS011;1641;51.306;12.384;2023-07-16T01:00:52;8.80;;;3.53;;
3257;SDS011;1641;51.306;12.384;2023-07-16T01:03:20;6.10;;;3.78;;
3257;SDS011;1641;51.306;12.384;2023-07-16T01:06:00;10.60;;;3.65;;
3257;SDS011;1641;51.306;12.384;2023-07-16T01:08:37;5.45;;;3.72;;
3257;SDS011;1641;51.306;12.384;2023-07-16T01:11:06;8.20;;;3.58;;
3257;SDS011;1641;51.306;12.384;2023-07-16T01:13:32;6.35;;;3.63;;
3257;SDS011;1641;51.306;12.384;2023-07-16T01:15:58;4.65;;;4.00;;
3257;SDS011;1641;51.306;12.384;2023-07-16T01:18:30;6.80;;;4.45;;
3257;SDS011;1641;51.306;12.384;2023-07-16T01:20:58;5.53;;;3.60;;
3257;SDS011;1641;51.306;12.384;2023-07-16T01:23:35;6.22;;;3.20;;
3257;SDS011;1641;51.306;12.384;2023-07-16T01:29:18;6.18;;;3.58;;
3257;SDS011;1641;51.306;12.384;2023-07-16T01:31:52;6.13;;;3.90;;
3257;SDS011;1641;51.306;12.384;2023-07-16T01:34:18;7.28;;;4.05;;
3257;SDS011;1641;51.306;12.384;2023-07-16T01:36:44;5.90;;;4.30;;
3257;SDS011;1641;51.306;12.384;2023-07-16T01:39:11;4.43;;;4.00;;
3257;SDS011;1641;51.306;12.384;2023-07-16T01:41:36;5.75;;;4.20;;
3257;SDS011;1641;51.306;12.384;2023-07-16T01:44:02;5.65;;;4.13;;
3257;SDS011;1641;51.306;12.384;2023-07-16T01:46:27;4.70;;;3.15;;
3257;SDS011;1641;51.306;12.384;2023-07-16T01:48:52;7.20;;;3.13;;
3257;SDS011;1641;51.306;12.384;2023-07-16T01:51:18;7.45;;;4.07;;
3257;SDS011;1641;51.306;12.384;2023-07-16T01:53:45;5.35;;;2.88;;
3257;SDS011;1641;51.306;12.384;2023-07-16T01:56:10;6.38;;;3.47;;
3257;SDS011;1641;51.306;12.384;2023-07-16T01:58:35;6.78;;;3.42;;
3257;SDS011;1641;51.306;12.384;2023-07-16T02:01:00;4.15;;;2.92;;
3257;SDS011;1641;51.306;12.384;2023-07-16T02:03:26;4.43;;;3.05;;
3257;SDS011;1641;51.306;12.384;2023-07-16T02:05:51;5.10;;;3.10;;
3257;SDS011;1641;51.306;12.384;2023-07-16T02:08:16;5.15;;;3.35;;
3257;SDS011;1641;51.306;12.384;2023-07-16T02:10:42;3.80;;;3.38;;
3257;SDS011;1641;51.306;12.384;2023-07-16T02:13:08;3.70;;;3.38;;
3257;SDS011;1641;51.306;12.384;2023-07-16T02:15:33;6.63;;;3.83;;
3257;SDS011;1641;51.306;12.384;2023-07-16T02:17:59;6.93;;;4.20;;
3257;SDS011;1641;51.306;12.384;2023-07-16T02:20:24;7.95;;;4.78;;
3257;SDS011;1641;51.306;12.384;2023-07-16T02:22:50;7.85;;;5.07;;
3257;SDS011;1641;51.306;12.384;2023-07-16T02:25:15;5.78;;;5.10;;
3257;SDS011;1641;51.306;12.384;2023-07-16T02:27:40;7.07;;;5.35;;
3257;SDS011;1641;51.306;12.384;2023-07-16T02:30:05;6.97;;;4.82;;
3257;SDS011;1641;51.306;12.384;2023-07-16T02:32:31;5.90;;;4.90;;
3257;SDS011;1641;51.306;12.384;2023-07-16T02:34:57;5.32;;;4.82;;
3257;SDS011;1641;51.306;12.384;2023-07-16T02:37:22;6.13;;;4.53;;
3257;SDS011;1641;51.306;12.384;2023-07-16T02:39:49;5.53;;;4.72;;
3257;SDS011;1641;51.306;12.384;2023-07-16T02:42:14;7.90;;;4.30;;
3257;SDS011;1641;51.306;12.384;2023-07-16T02:44:40;7.85;;;4.45;;
3257;SDS011;1641;51.306;12.384;2023-07-16T02:47:09;5.60;;;4.50;;
3257;SDS011;1641;51.306;12.384;2023-07-16T02:49:35;6.63;;;4.60;;
3257;SDS011;1641;51.306;12.384;2023-07-16T02:52:01;6.60;;;4.22;;
3257;SDS011;1641;51.306;12.384;2023-07-16T02:54:26;4.88;;;4.35;;
3257;SDS011;1641;51.306;12.384;2023-07-16T02:56:51;7.68;;;4.07;;
3257;SDS011;1641;51.306;12.384;2023-07-16T02:59:17;5.43;;;4.07;;
3257;SDS011;1641;51.306;12.384;2023-07-16T03:01:42;5.60;;;3.90;;
3257;SDS011;1641;51.306;12.384;2023-07-16T03:04:07;6.60;;;3.53;;
3257;SDS011;1641;51.306;12.384;2023-07-16T03:06:33;4.35;;;3.92;;
3257;SDS011;1641;51.306;12.384;2023-07-16T03:08:58;4.53;;;4.10;;
3257;SDS011;1641;51.306;12.384;2023-07-16T03:11:23;5.13;;;3.60;;
3257;SDS011;1641;51.306;12.384;2023-07-16T03:13:48;6.80;;;3.92;;
3257;SDS011;1641;51.306;12.384;2023-07-16T03:16:14;7.00;;;4.05;;
3257;SDS011;1641;51.306;12.384;2023-07-16T03:18:39;4.85;;;3.42;;
3257;SDS011;1641;51.306;12.384;2023-07-16T03:21:04;6.15;;;3.92;;
3257;SDS011;1641;51.306;12.384;2023-07-16T03:23:29;5.05;;;3.75;;
3257;SDS011;1641;51.306;12.384;2023-07-16T03:25:55;4.07;;;3.33;;
3257;SDS011;1641;51.306;12.384;2023-07-16T03:28:20;4.05;;;3.45;;
3257;SDS011;1641;51.306;12.384;2023-07-16T03:30:46;3.58;;;3.25;;
3257;SDS011;1641;51.306;12.384;2023-07-16T03:33:15;4.25;;;3.75;;
3257;SDS011;1641;51.306;12.384;2023-07-16T03:35:44;3.75;;;3.20;;
3257;SDS011;1641;51.306;12.384;2023-07-16T03:38:11;5.10;;;3.67;;
3257;SDS011;1641;51.306;12.384;2023-07-16T03:40:36;8.60;;;4.18;;
3257;SDS011;1641;51.306;12.384;2023-07-16T03:43:02;3.88;;;3.20;;
3257;SDS011;1641;51.306;12.384;2023-07-16T03:45:27;5.68;;;3.88;;
3257;SDS011;1641;51.306;12.384;2023-07-16T03:47:52;4.60;;;3.28;;
3257;SDS011;1641;51.306;12.384;2023-07-16T03:50:18;3.38;;;3.08;;
3257;SDS011;1641;51.306;12.384;2023-07-16T03:52:43;12.55;;;4.82;;
3257;SDS011;1641;51.306;12.384;2023-07-16T03:55:09;4.65;;;3.45;;
3257;SDS011;1641;51.306;12.384;2023-07-16T03:57:34;6.43;;;3.25;;
3257;SDS011;1641;51.306;12.384;2023-07-16T04:00:03;5.38;;;2.92;;
3257;SDS011;1641;51.306;12.384;2023-07-16T04:02:31;4.05;;;2.97;;
3257;SDS011;1641;51.306;12.384;2023-07-16T04:04:56;4.53;;;3.33;;
3257;SDS011;1641;51.306;12.384;2023-07-16T04:07:21;4.85;;;3.95;;
3257;SDS011;1641;51.306;12.384;2023-07-16T04:09:46;4.85;;;3.40;;
3257;SDS011;1641;51.306;12.384;2023-07-16T04:12:12;3.30;;;3.00;;
3257;SDS011;1641;51.306;12.384;2023-07-16T04:14:37;5.93;;;3.97;;
3257;SDS011;1641;51.306;12.384;2023-07-16T04:17:02;6.65;;;3.58;;
3257;SDS011;1641;51.306;12.384;2023-07-16T04:19:28;6.10;;;3.10;;
3257;SDS011;1641;51.306;12.384;2023-07-16T04:21:53;3.88;;;3.10;;
3257;SDS011;1641;51.306;12.384;2023-07-16T04:24:18;8.52;;;3.78;;
3257;SDS011;1641;51.306;12.384;2023-07-16T04:26:44;6.82;;;3.47;;
3257;SDS011;1641;51.306;12.384;2023-07-16T04:29:09;3.58;;;3.10;;
3257;SDS011;1641;51.306;12.384;2023-07-16T04:31:34;5.38;;;3.53;;
3257;SDS011;1641;51.306;12.384;2023-07-16T04:34:00;9.80;;;3.20;;
3257;SDS011;1641;51.306;12.384;2023-07-16T04:36:25;4.75;;;3.15;;
3257;SDS011;1641;51.306;12.384;2023-07-16T04:38:51;3.38;;;3.08;;
3257;SDS011;1641;51.306;12.384;2023-07-16T04:41:16;4.13;;;2.90;;
3257;SDS011;1641;51.306;12.384;2023-07-16T04:43:41;5.28;;;3.40;;
3257;SDS011;1641;51.306;12.384;2023-07-16T04:46:06;4.93;;;3.45;;
3257;SDS011;1641;51.306;12.384;2023-07-16T04:48:32;4.30;;;3.08;;
3257;SDS011;1641;51.306;12.384;2023-07-16T04:50:57;5.53;;;3.33;;
3257;SDS011;1641;51.306;12.384;2023-07-16T04:53:22;3.83;;;3.00;;
3257;SDS011;1641;51.306;12.384;2023-07-16T04:55:49;4.55;;;2.80;;
3257;SDS011;1641;51.306;12.384;2023-07-16T04:58:15;7.15;;;2.80;;
3257;SDS011;1641;51.306;12.384;2023-07-16T05:00:40;6.20;;;2.85;;
3257;SDS011;1641;51.306;12.384;2023-07-16T05:03:05;4.72;;;2.58;;
3257;SDS011;1641;51.306;12.384;2023-07-16T05:05:31;2.67;;;2.40;;
3257;SDS011;1641;51.306;12.384;2023-07-16T05:07:56;2.75;;;2.30;;
3257;SDS011;1641;51.306;12.384;2023-07-16T05:10:22;4.07;;;2.40;;
3257;SDS011;1641;51.306;12.384;2023-07-16T05:12:47;2.95;;;2.20;;
3257;SDS011;1641;51.306;12.384;2023-07-16T05:15:12;3.65;;;1.90;;
3257;SDS011;1641;51.306;12.384;2023-07-16T05:17:37;2.10;;;1.90;;
3257;SDS011;1641;51.306;12.384;2023-07-16T05:20:06;9.00;;;2.15;;
3257;SDS011;1641;51.306;12.384;2023-07-16T05:22:32;4.00;;;1.92;;
3257;SDS011;1641;51.306;12.384;2023-07-16T05:24:58;2.33;;;1.67;;
3257;SDS011;1641;51.306;12.384;2023-07-16T05:27:23;4.13;;;1.92;;
3257;SDS011;1641;51.306;12.384;2023-07-16T05:29:49;2.10;;;1.63;;
3257;SDS011;1641;51.306;12.384;2023-07-16T05:32:14;6.43;;;1.75;;
3257;SDS011;1641;51.306;12.384;2023-07-16T05:34:39;3.22;;;1.95;;
3257;SDS011;1641;51.306;12.384;2023-07-16T05:37:05;3.08;;;1.50;;
3257;SDS011;1641;51.306;12.384;2023-07-16T05:39:30;2.30;;;1.42;;
3257;SDS011;1641;51.306;12.384;2023-07-16T05:41:56;4.57;;;1.40;;
3257;SDS011;1641;51.306;12.384;2023-07-16T05:44:21;3.15;;;1.77;;
3257;SDS011;1641;51.306;12.384;2023-07-16T05:46:49;2.45;;;1.77;;
3257;SDS011;1641;51.306;12.384;2023-07-16T05:49:15;2.78;;;1.20;;
3257;SDS011;1641;51.306;12.384;2023-07-16T05:51:40;5.90;;;1.55;;
3257;SDS011;1641;51.306;12.384;2023-07-16T05:54:05;1.40;;;1.30;;
3257;SDS011;1641;51.306;12.384;2023-07-16T05:56:31;3.17;;;1.63;;
3257;SDS011;1641;51.306;12.384;2023-07-16T05:58:57;1.80;;;1.30;;
3257;SDS011;1641;51.306;12.384;2023-07-16T06:01:22;2.53;;;1.30;;
3257;SDS011;1641;51.306;12.384;2023-07-16T06:03:47;3.33;;;1.70;;
3257;SDS011;1641;51.306;12.384;2023-07-16T06:06:12;3.15;;;1.40;;
3257;SDS011;1641;51.306;12.384;2023-07-16T06:08:44;2.53;;;1.88;;
3257;SDS011;1641;51.306;12.384;2023-07-16T06:11:09;5.88;;;1.63;;
3257;SDS011;1641;51.306;12.384;2023-07-16T06:13:35;2.17;;;1.17;;
3257;SDS011;1641;51.306;12.384;2023-07-16T06:16:00;3.28;;;1.52;;
3257;SDS011;1641;51.306;12.384;2023-07-16T06:18:26;4.63;;;1.35;;
3257;SDS011;1641;51.306;12.384;2023-07-16T06:20:51;1.33;;;1.20;;
3257;SDS011;1641;51.306;12.384;2023-07-16T06:23:17;1.48;;;1.30;;
3257;SDS011;1641;51.306;12.384;2023-07-16T06:25:43;2.70;;;1.40;;
3257;SDS011;1641;51.306;12.384;2023-07-16T06:28:12;1.77;;;1.33;;
3257;SDS011;1641;51.306;12.384;2023-07-16T06:30:38;1.90;;;1.40;;
3257;SDS011;1641;51.306;12.384;2023-07-16T06:33:04;3.03;;;1.10;;
3257;SDS011;1641;51.306;12.384;2023-07-16T06:35:29;2.47;;;1.40;;
3257;SDS011;1641;51.306;12.384;2023-07-16T06:37:54;1.42;;;1.33;;
3257;SDS011;1641;51.306;12.384;2023-07-16T06:40:20;2.15;;;1.30;;
3257;SDS011;1641;51.306;12.384;2023-07-16T06:42:45;4.28;;;1.30;;
3257;SDS011;1641;51.306;12.384;2023-07-16T06:45:10;3.47;;;1.55;;
3257;SDS011;1641;51.306;12.384;2023-07-16T06:47:36;3.90;;;1.77;;
3257;SDS011;1641;51.306;12.384;2023-07-16T06:50:01;2.60;;;1.33;;
3257;SDS011;1641;51.306;12.384;2023-07-16T06:52:27;5.70;;;1.80;;
3257;SDS011;1641;51.306;12.384;2023-07-16T06:54:53;4.03;;;1.50;;
3257;SDS011;1641;51.306;12.384;2023-07-16T06:57:19;6.90;;;1.80;;
3257;SDS011;1641;51.306;12.384;2023-07-16T06:59:45;4.75;;;1.50;;
3257;SDS011;1641;51.306;12.384;2023-07-16T07:02:11;5.00;;;1.50;;
3257;SDS011;1641;51.306;12.384;2023-07-16T07:04:37;1.38;;;1.27;;
3257;SDS011;1641;51.306;12.384;2023-07-16T07:07:02;2.80;;;1.58;;
3257;SDS011;1641;51.306;12.384;2023-07-16T07:09:27;4.63;;;1.63;;
3257;SDS011;1641;51.306;12.384;2023-07-16T07:11:53;3.07;;;1.73;;
3257;SDS011;1641;51.306;12.384;2023-07-16T07:14:18;1.83;;;1.30;;
3257;SDS011;1641;51.306;12.384;2023-07-16T07:16:43;2.78;;;1.60;;
3257;SDS011;1641;51.306;12.384;2023-07-16T07:19:08;3.13;;;1.40;;
3257;SDS011;1641;51.306;12.384;2023-07-16T07:21:34;4.43;;;1.48;;
3257;SDS011;1641;51.306;12.384;2023-07-16T07:23:59;2.67;;;1.73;;
3257;SDS011;1641;51.306;12.384;2023-07-16T07:26:24;2.22;;;1.45;;
3257;SDS011;1641;51.306;12.384;2023-07-16T07:28:50;1.58;;;1.30;;
3257;SDS011;1641;51.306;12.384;2023-07-16T07:31:15;3.28;;;1.48;;
3257;SDS011;1641;51.306;12.384;2023-07-16T07:33:40;6.93;;;1.80;;
3257;SDS011;1641;51.306;12.384;2023-07-16T07:36:06;5.68;;;1.83;;
3257;SDS011;1641;51.306;12.384;2023-07-16T07:38:31;4.68;;;2.15;;
3257;SDS011;1641;51.306;12.384;2023-07-16T07:40:56;3.85;;;1.23;;
3257;SDS011;1641;51.306;12.384;2023-07-16T07:43:22;5.60;;;1.60;;
3257;SDS011;1641;51.306;12.384;2023-07-16T07:45:47;2.42;;;1.48;;
3257;SDS011;1641;51.306;12.384;2023-07-16T07:48:12;3.00;;;1.90;;
3257;SDS011;1641;51.306;12.384;2023-07-16T07:50:38;5.53;;;1.60;;
3257;SDS011;1641;51.306;12.384;2023-07-16T07:53:03;5.43;;;1.60;;
3257;SDS011;1641;51.306;12.384;2023-07-16T07:55:28;2.90;;;1.60;;
3257;SDS011;1641;51.306;12.384;2023-07-16T07:57:53;5.90;;;1.53;;
3257;SDS011;1641;51.306;12.384;2023-07-16T08:00:19;4.35;;;2.30;;
3257;SDS011;1641;51.306;12.384;2023-07-16T08:02:44;3.45;;;2.03;;
3257;SDS011;1641;51.306;12.384;2023-07-16T08:05:10;3.67;;;1.55;;
3257;SDS011;1641;51.306;12.384;2023-07-16T08:07:35;6.43;;;1.63;;
3257;SDS011;1641;51.306;12.384;2023-07-16T08:10:01;4.22;;;1.63;;
3257;SDS011;1641;51.306;12.384;2023-07-16T08:12:26;1.95;;;1.77;;
3257;SDS011;1641;51.306;12.384;2023-07-16T08:14:51;4.10;;;1.55;;
3257;SDS011;1641;51.306;12.384;2023-07-16T08:17:16;2.63;;;1.40;;
3257;SDS011;1641;51.306;12.384;2023-07-16T08:19:42;5.72;;;2.00;;
3257;SDS011;1641;51.306;12.384;2023-07-16T08:22:07;4.75;;;1.80;;
3257;SDS011;1641;51.306;12.384;2023-07-16T08:24:32;3.60;;;1.75;;
3257;SDS011;1641;51.306;12.384;2023-07-16T08:26:58;3.13;;;1.83;;
3257;SDS011;1641;51.306;12.384;2023-07-16T08:29:23;3.15;;;1.30;;
3257;SDS011;1641;51.306;12.384;2023-07-16T08:31:48;7.15;;;1.88;;
3257;SDS011;1641;51.306;12.384;2023-07-16T08:34:13;5.47;;;1.48;;
3257;SDS011;1641;51.306;12.384;2023-07-16T08:36:39;4.78;;;1.45;;
3257;SDS011;1641;51.306;12.384;2023-07-16T08:39:04;3.70;;;1.50;;
3257;SDS011;1641;51.306;12.384;2023-07-16T08:41:30;3.13;;;1.40;;
3257;SDS011;1641;51.306;12.384;2023-07-16T08:43:56;2.53;;;1.30;;
3257;SDS011;1641;51.306;12.384;2023-07-16T08:46:21;3.20;;;1.77;;
3257;SDS011;1641;51.306;12.384;2023-07-16T08:48:47;3.70;;;1.98;;
3257;SDS011;1641;51.306;12.384;2023-07-16T08:51:14;3.42;;;1.63;;
3257;SDS011;1641;51.306;12.384;2023-07-16T08:53:39;10.40;;;1.50;;
3257;SDS011;1641;51.306;12.384;2023-07-16T08:56:05;3.67;;;1.42;;
3257;SDS011;1641;51.306;12.384;2023-07-16T08:58:30;2.80;;;1.83;;
3257;SDS011;1641;51.306;12.384;2023-07-16T09:00:57;3.85;;;1.48;;
3257;SDS011;1641;51.306;12.384;2023-07-16T09:03:24;3.03;;;1.60;;
3257;SDS011;1641;51.306;12.384;2023-07-16T09:05:49;2.73;;;1.07;;
3257;SDS011;1641;51.306;12.384;2023-07-16T09:08:15;8.43;;;1.52;;
3257;SDS011;1641;51.306;12.384;2023-07-16T09:10:41;4.13;;;1.48;;
3257;SDS011;1641;51.306;12.384;2023-07-16T09:13:07;5.30;;;1.65;;
3257;SDS011;1641;51.306;12.384;2023-07-16T09:15:32;3.33;;;1.45;;
3257;SDS011;1641;51.306;12.384;2023-07-16T09:17:59;2.08;;;1.30;;
3257;SDS011;1641;51.306;12.384;2023-07-16T09:20:25;2.65;;;1.33;;
3257;SDS011;1641;51.306;12.384;2023-07-16T09:22:55;2.53;;;1.42;;
3257;SDS011;1641;51.306;12.384;2023-07-16T09:25:25;3.17;;;1.20;;
3257;SDS011;1641;51.306;12.384;2023-07-16T09:28:02;3.05;;;1.33;;
3257;SDS011;1641;51.306;12.384;2023-07-16T09:30:31;4.72;;;1.67;;
3257;SDS011;1641;51.306;12.384;2023-07-16T09:32:58;4.18;;;1.60;;
3257;SDS011;1641;51.306;12.384;2023-07-16T09:35:35;6.63;;;1.20;;
3257;SDS011;1641;51.306;12.384;2023-07-16T09:38:00;3.10;;;1.45;;
3257;SDS011;1641;51.306;12.384;2023-07-16T09:40:26;6.47;;;1.80;;
3257;SDS011;1641;51.306;12.384;2023-07-16T09:42:52;1.95;;;1.08;;
3257;SDS011;1641;51.306;12.384;2023-07-16T09:45:20;1.80;;;1.40;;
3257;SDS011;1641;51.306;12.384;2023-07-16T09:47:45;2.63;;;1.30;;
3257;SDS011;1641;51.306;12.384;2023-07-16T09:50:11;2.83;;;1.40;;
3257;SDS011;1641;51.306;12.384;2023-07-16T09:52:36;5.35;;;1.40;;
3257;SDS011;1641;51.306;12.384;2023-07-16T09:55:04;2.42;;;1.42;;
3257;SDS011;1641;51.306;12.384;2023-07-16T09:57:34;6.15;;;1.70;;
3257;SDS011;1641;51.306;12.384;2023-07-16T10:00:03;4.38;;;1.50;;
3257;SDS011;1641;51.306;12.384;2023-07-16T10:02:34;3.35;;;1.80;;
3257;SDS011;1641;51.306;12.384;2023-07-16T10:05:11;2.83;;;1.40;;
3257;SDS011;1641;51.306;12.384;2023-07-16T10:07:40;4.80;;;1.55;;
3257;SDS011;1641;51.306;12.384;2023-07-16T10:10:09;4.22;;;1.35;;
3257;SDS011;1641;51.306;12.384;2023-07-16T10:12:36;5.45;;;1.52;;
3257;SDS011;1641;51.306;12.384;2023-07-16T10:15:02;7.00;;;1.63;;
3257;SDS011;1641;51.306;12.384;2023-07-16T10:17:32;4.50;;;1.65;;
3257;SDS011;1641;51.306;12.384;2023-07-16T10:22:46;2.72;;;1.40;;
3257;SDS011;1641;51.306;12.384;2023-07-16T10:30:08;2.75;;;1.50;;
3257;SDS011;1641;51.306;12.384;2023-07-16T10:32:34;3.67;;;2.05;;
3257;SDS011;1641;51.306;12.384;2023-07-16T10:35:00;3.17;;;1.45;;
3257;SDS011;1641;51.306;12.384;2023-07-16T10:37:26;3.47;;;1.50;;
3257;SDS011;1641;51.306;12.384;2023-07-16T10:39:53;5.03;;;1.88;;
3257;SDS011;1641;51.306;12.384;2023-07-16T10:42:23;3.05;;;1.38;;
3257;SDS011;1641;51.306;12.384;2023-07-16T10:44:52;4.28;;;1.40;;
3257;SDS011;1641;51.306;12.384;2023-07-16T10:47:31;3.03;;;1.75;;
3257;SDS011;1641;51.306;12.384;2023-07-16T10:49:58;4.72;;;1.80;;
3257;SDS011;1641;51.306;12.384;2023-07-16T10:52:24;3.45;;;1.88;;
3257;SDS011;1641;51.306;12.384;2023-07-16T10:54:49;3.13;;;1.58;;
3257;SDS011;1641;51.306;12.384;2023-07-16T10:57:16;8.77;;;1.80;;
3257;SDS011;1641;51.306;12.384;2023-07-16T10:59:44;4.32;;;1.70;;
3257;SDS011;1641;51.306;12.384;2023-07-16T11:02:10;2.88;;;1.30;;
3257;SDS011;1641;51.306;12.384;2023-07-16T11:04:37;6.07;;;1.95;;
3257;SDS011;1641;51.306;12.384;2023-07-16T11:07:03;3.47;;;1.45;;
3257;SDS011;1641;51.306;12.384;2023-07-16T11:09:42;2.97;;;1.73;;
3257;SDS011;1641;51.306;12.384;2023-07-16T11:12:10;3.13;;;1.98;;
3257;SDS011;1641;51.306;12.384;2023-07-16T11:14:37;2.25;;;1.45;;
3257;SDS011;1641;51.306;12.384;2023-07-16T11:17:06;3.47;;;1.60;;
3257;SDS011;1641;51.306;12.384;2023-07-16T11:19:33;2.73;;;1.80;;
3257;SDS011;1641;51.306;12.384;2023-07-16T11:22:00;8.40;;;1.80;;
3257;SDS011;1641;51.306;12.384;2023-07-16T11:24:35;4.40;;;1.35;;
3257;SDS011;1641;51.306;12.384;2023-07-16T11:27:15;3.13;;;1.65;;
3257;SDS011;1641;51.306;12.384;2023-07-16T11:29:56;2.25;;;1.77;;
3257;SDS011;1641;51.306;12.384;2023-07-16T11:33:09;3.90;;;1.52;;
3257;SDS011;1641;51.306;12.384;2023-07-16T11:35:17;2.33;;;1.63;;
3257;SDS011;1641;51.306;12.384;2023-07-16T11:37:44;7.65;;;2.00;;
3257;SDS011;1641;51.306;12.384;2023-07-16T11:40:10;3.67;;;1.40;;
3257;SDS011;1641;51.306;12.384;2023-07-16T11:42:39;10.15;;;1.90;;
3257;SDS011;1641;51.306;12.384;2023-07-16T11:45:17;2.70;;;1.65;;
3257;SDS011;1641;51.306;12.384;2023-07-16T11:47:44;3.83;;;1.75;;
3257;SDS011;1641;51.306;12.384;2023-07-16T11:50:09;1.67;;;1.40;;
3257;SDS011;1641;51.306;12.384;2023-07-16T11:52:35;5.65;;;1.70;;
3257;SDS011;1641;51.306;12.384;2023-07-16T11:55:03;4.80;;;2.00;;
3257;SDS011;1641;51.306;12.384;2023-07-16T11:57:29;4.05;;;2.53;;
3257;SDS011;1641;51.306;12.384;2023-07-16T11:59:54;3.58;;;1.83;;
3257;SDS011;1641;51.306;12.384;2023-07-16T12:02:23;2.13;;;1.50;;
3257;SDS011;1641;51.306;12.384;2023-07-16T12:04:50;2.92;;;1.60;;
3257;SDS011;1641;51.306;12.384;2023-07-16T12:07:15;3.60;;;1.75;;
3257;SDS011;1641;51.306;12.384;2023-07-16T12:09:55;2.67;;;1.65;;
3257;SDS011;1641;51.306;12.384;2023-07-16T12:12:20;4.23;;;1.90;;
3257;SDS011;1641;51.306;12.384;2023-07-16T12:14:46;5.80;;;2.00;;
3257;SDS011;1641;51.306;12.384;2023-07-16T12:17:11;4.00;;;1.60;;
3257;SDS011;1641;51.306;12.384;2023-07-16T12:19:36;2.05;;;1.50;;
3257;SDS011;1641;51.306;12.384;2023-07-16T12:22:01;2.55;;;1.42;;
3257;SDS011;1641;51.306;12.384;2023-07-16T12:24:34;5.05;;;1.70;;
3257;SDS011;1641;51.306;12.384;2023-07-16T12:26:59;3.20;;;1.95;;
3257;SDS011;1641;51.306;12.384;2023-07-16T12:29:24;4.97;;;1.85;;
3257;SDS011;1641;51.306;12.384;2023-07-16T12:31:56;4.97;;;1.80;;
3257;SDS011;1641;51.306;12.384;2023-07-16T12:34:21;6.13;;;1.95;;
3257;SDS011;1641;51.306;12.384;2023-07-16T12:36:46;3.55;;;1.80;;
3257;SDS011;1641;51.306;12.384;2023-07-16T12:39:12;3.13;;;1.50;;
3257;SDS011;1641;51.306;12.384;2023-07-16T12:41:37;3.28;;;1.70;;
3257;SDS011;1641;51.306;12.384;2023-07-16T12:44:02;2.63;;;1.90;;
3257;SDS011;1641;51.306;12.384;2023-07-16T12:46:28;5.32;;;1.95;;
3257;SDS011;1641;51.306;12.384;2023-07-16T12:48:53;4.43;;;1.92;;
3257;SDS011;1641;51.306;12.384;2023-07-16T12:51:19;3.22;;;2.05;;
3257;SDS011;1641;51.306;12.384;2023-07-16T12:53:44;5.95;;;2.13;;
3257;SDS011;1641;51.306;12.384;2023-07-16T12:56:13;2.75;;;1.60;;
3257;SDS011;1641;51.306;12.384;2023-07-16T12:58:38;2.63;;;1.83;;
3257;SDS011;1641;51.306;12.384;2023-07-16T13:01:04;6.18;;;1.80;;
3257;SDS011;1641;51.306;12.384;2023-07-16T13:03:29;4.75;;;1.63;;
3257;SDS011;1641;51.306;12.384;2023-07-16T13:05:54;4.22;;;2.28;;
3257;SDS011;1641;51.306;12.384;2023-07-16T13:08:20;5.32;;;2.35;;
3257;SDS011;1641;51.306;12.384;2023-07-16T13:10:48;4.72;;;1.85;;
3257;SDS011;1641;51.306;12.384;2023-07-16T13:13:16;5.65;;;2.35;;
3257;SDS011;1641;51.306;12.384;2023-07-16T13:15:42;4.55;;;2.30;;
3257;SDS011;1641;51.306;12.384;2023-07-16T13:18:10;4.47;;;2.00;;
3257;SDS011;1641;51.306;12.384;2023-07-16T13:20:36;4.18;;;2.10;;
3257;SDS011;1641;51.306;12.384;2023-07-16T13:23:02;3.58;;;2.20;;
3257;SDS011;1641;51.306;12.384;2023-07-16T13:25:28;4.30;;;2.15;;
3257;SDS011;1641;51.306;12.384;2023-07-16T13:27:57;13.23;;;2.72;;
3257;SDS011;1641;51.306;12.384;2023-07-16T13:30:23;3.92;;;2.20;;
3257;SDS011;1641;51.306;12.384;2023-07-16T13:32:48;7.47;;;2.13;;
3257;SDS011;1641;51.306;12.384;2023-07-16T13:35:16;7.32;;;2.55;;
3257;SDS011;1641;51.306;12.384;2023-07-16T13:37:42;5.43;;;2.25;;
3257;SDS011;1641;51.306;12.384;2023-07-16T13:40:07;5.35;;;2.90;;
3257;SDS011;1641;51.306;12.384;2023-07-16T13:42:33;3.22;;;2.25;;
3257;SDS011;1641;51.306;12.384;2023-07-16T13:45:05;6.32;;;2.30;;
3257;SDS011;1641;51.306;12.384;2023-07-16T13:47:31;4.90;;;2.63;;
3257;SDS011;1641;51.306;12.384;2023-07-16T13:49:57;3.38;;;2.22;;
3257;SDS011;1641;51.306;12.384;2023-07-16T13:52:25;7.28;;;2.70;;
3257;SDS011;1641;51.306;12.384;2023-07-16T13:54:51;4.53;;;2.22;;
3257;SDS011;1641;51.306;12.384;2023-07-16T13:57:16;3.47;;;2.25;;
3257;SDS011;1641;51.306;12.384;2023-07-16T13:59:41;7.50;;;2.80;;
3257;SDS011;1641;51.306;12.384;2023-07-16T14:02:07;3.28;;;2.30;;
3257;SDS011;1641;51.306;12.384;2023-07-16T14:04:32;5.53;;;2.10;;
3257;SDS011;1641;51.306;12.384;2023-07-16T14:06:58;4.90;;;2.17;;
3257;SDS011;1641;51.306;12.384;2023-07-16T14:09:24;8.00;;;2.75;;
3257;SDS011;1641;51.306;12.384;2023-07-16T14:11:49;2.97;;;2.28;;
3257;SDS011;1641;51.306;12.384;2023-07-16T14:14:15;3.97;;;2.28;;
3257;SDS011;1641;51.306;12.384;2023-07-16T14:16:41;2.85;;;1.83;;
3257;SDS011;1641;51.306;12.384;2023-07-16T14:19:06;4.40;;;1.98;;
3257;SDS011;1641;51.306;12.384;2023-07-16T14:21:38;6.15;;;2.30;;
3257;SDS011;1641;51.306;12.384;2023-07-16T14:24:07;2.25;;;1.75;;
3257;SDS011;1641;51.306;12.384;2023-07-16T14:26:36;3.05;;;2.17;;
3257;SDS011;1641;51.306;12.384;2023-07-16T14:29:08;4.68;;;2.22;;
3257;SDS011;1641;51.306;12.384;2023-07-16T14:31:33;3.05;;;1.77;;
3257;SDS011;1641;51.306;12.384;2023-07-16T14:34:02;4.82;;;2.78;;
3257;SDS011;1641;51.306;12.384;2023-07-16T14:36:27;5.05;;;2.13;;
3257;SDS011;1641;51.306;12.384;2023-07-16T14:39:05;3.40;;;2.28;;
3257;SDS011;1641;51.306;12.384;2023-07-16T14:41:31;7.65;;;2.00;;
3257;SDS011;1641;51.306;12.384;2023-07-16T14:43:59;6.35;;;2.45;;
3257;SDS011;1641;51.306;12.384;2023-07-16T14:46:28;3.60;;;2.17;;
3257;SDS011;1641;51.306;12.384;2023-07-16T14:48:53;5.50;;;2.40;;
3257;SDS011;1641;51.306;12.384;2023-07-16T14:51:24;4.75;;;2.75;;
3257;SDS011;1641;51.306;12.384;2023-07-16T14:53:50;4.43;;;2.60;;
3257;SDS011;1641;51.306;12.384;2023-07-16T14:56:20;4.75;;;2.72;;
3257;SDS011;1641;51.306;12.384;2023-07-16T14:58:49;5.10;;;2.25;;
3257;SDS011;1641;51.306;12.384;2023-07-16T15:01:14;4.05;;;2.20;;
3257;SDS011;1641;51.306;12.384;2023-07-16T15:03:40;4.95;;;2.42;;
3257;SDS011;1641;51.306;12.384;2023-07-16T15:06:05;3.03;;;1.92;;